sensor_id;sensor_type;location;lat;lon;timestamp;temperature;humidity
17639;DHT22;8938;53.546;9.954;2024-01-16T00:02:06;4.40;99.90
17639;DHT22;8938;53.546;9.954;2024-01-16T00:04:35;4.40;99.90
17639;DHT22;8938;53.546;9.954;2024-01-16T00:07:01;4.40;99.90
17639;DHT22;8938;53.546;9.954;2024-01-16T00:09:26;4.30;99.90
17639;DHT22;8938;53.546;9.954;2024-01-16T00:11:52;4.30;99.90
17639;DHT22;8938;53.546;9.954;2024-01-16T00:14:17;4.30;99.90
17639;DHT22;8938;53.546;9.954;2024-01-16T00:16:45;4.20;99.90
17639;DHT22;8938;53.546;9.954;2024-01-16T00:19:11;4.10;99.90
17639;DHT22;8938;53.546;9.954;2024-01-16T00:21:41;4.10;99.90
17639;DHT22;8938;53.546;9.954;2024-01-16T00:24:06;4.10;99.90
17639;DHT22;8938;53.546;9.954;2024-01-16T00:26:32;4.00;99.90
17639;DHT22;8938;53.546;9.954;2024-01-16T00:28:58;4.10;99.90
17639;DHT22;8938;53.546;9.954;2024-01-16T00:31:23;4.10;99.90
17639;DHT22;8938;53.546;9.954;2024-01-16T00:33:49;4.20;99.90
17639;DHT22;8938;53.546;9.954;2024-01-16T00:36:15;4.10;99.90
17639;DHT22;8938;53.546;9.954;2024-01-16T00:38:40;4.10;99.90
17639;DHT22;8938;53.546;9.954;2024-01-16T00:41:06;4.10;99.90
17639;DHT22;8938;53.546;9.954;2024-01-16T00:43:32;4.10;99.90
17639;DHT22;8938;53.546;9.954;2024-01-16T00:45:58;4.00;99.90
17639;DHT22;8938;53.546;9.954;2024-01-16T00:48:24;3.90;99.90
17639;DHT22;8938;53.546;9.954;2024-01-16T00:50:49;3.80;99.90
17639;DHT22;8938;53.546;9.954;2024-01-16T00:53:18;3.80;99.90
17639;DHT22;8938;53.546;9.954;2024-01-16T00:55:44;3.80;99.90
17639;DHT22;8938;53.546;9.954;2024-01-16T00:58:10;3.80;99.90
17639;DHT22;8938;53.546;9.954;2024-01-16T01:00:35;3.80;99.90
17639;DHT22;8938;53.546;9.954;2024-01-16T01:03:03;3.90;99.90
17639;DHT22;8938;53.546;9.954;2024-01-16T01:05:29;3.90;99.90
17639;DHT22;8938;53.546;9.954;2024-01-16T01:07:57;3.90;99.90
17639;DHT22;8938;53.546;9.954;2024-01-16T01:10:23;3.90;99.90
17639;DHT22;8938;53.546;9.954;2024-01-16T01:12:49;4.00;99.90
17639;DHT22;8938;53.546;9.954;2024-01-16T01:15:15;4.00;99.90
17639;DHT22;8938;53.546;9.954;2024-01-16T01:17:41;4.00;99.90
17639;DHT22;8938;53.546;9.954;2024-01-16T01:20:08;4.00;99.90
17639;DHT22;8938;53.546;9.954;2024-01-16T01:22:35;4.00;99.90
17639;DHT22;8938;53.546;9.954;2024-01-16T01:25:00;3.90;99.90
17639;DHT22;8938;53.546;9.954;2024-01-16T01:27:26;3.90;99.90
17639;DHT22;8938;53.546;9.954;2024-01-16T01:29:51;4.00;99.90
17639;DHT22;8938;53.546;9.954;2024-01-16T01:32:17;3.90;99.90
17639;DHT22;8938;53.546;9.954;2024-01-16T01:34:42;3.90;99.90
17639;DHT22;8938;53.546;9.954;2024-01-16T01:37:08;3.80;99.90
17639;DHT22;8938;53.546;9.954;2024-01-16T01:39:34;3.90;99.90
17639;DHT22;8938;53.546;9.954;2024-01-16T01:41:59;3.80;99.90
17639;DHT22;8938;53.546;9.954;2024-01-16T01:44:25;3.80;99.90
17639;DHT22;8938;53.546;9.954;2024-01-16T01:46:51;3.90;99.90
17639;DHT22;8938;53.546;9.954;2024-01-16T01:49:19;3.90;99.90
17639;DHT22;8938;53.546;9.954;2024-01-16T01:54:11;4.00;99.90
17639;DHT22;8938;53.546;9.954;2024-01-16T01:56:38;4.00;99.90
17639;DHT22;8938;53.546;9.954;2024-01-16T01:59:05;3.90;99.90
17639;DHT22;8938;53.546;9.954;2024-01-16T02:03:59;3.90;99.90
17639;DHT22;8938;53.546;9.954;2024-01-16T02:06:25;3.90;99.90
17639;DHT22;8938;53.546;9.954;2024-01-16T02:08:51;4.00;99.90
17639;DHT22;8938;53.546;9.954;2024-01-16T02:11:17;4.00;99.90
17639;DHT22;8938;53.546;9.954;2024-01-16T02:13:42;4.00;99.90
17639;DHT22;8938;53.546;9.954;2024-01-16T02:16:24;4.10;99.90
17639;DHT22;8938;53.546;9.954;2024-01-16T02:18:50;4.30;99.90
17639;DHT22;8938;53.546;9.954;2024-01-16T02:21:25;4.10;99.90
17639;DHT22;8938;53.546;9.954;2024-01-16T02:23:53;4.10;99.90
17639;DHT22;8938;53.546;9.954;2024-01-16T02:26:19;4.10;99.90
17639;DHT22;8938;53.546;9.954;2024-01-16T02:28:45;4.10;99.90
17639;DHT22;8938;53.546;9.954;2024-01-16T02:31:11;4.10;99.90
17639;DHT22;8938;53.546;9.954;2024-01-16T02:33:36;4.10;99.90
17639;DHT22;8938;53.546;9.954;2024-01-16T02:36:02;4.20;99.90
17639;DHT22;8938;53.546;9.954;2024-01-16T02:40:54;4.00;99.90
17639;DHT22;8938;53.546;9.954;2024-01-16T02:43:20;3.90;99.90
17639;DHT22;8938;53.546;9.954;2024-01-16T02:45:46;3.90;99.90
17639;DHT22;8938;53.546;9.954;2024-01-16T02:48:11;3.90;99.90
17639;DHT22;8938;53.546;9.954;2024-01-16T02:50:37;3.90;99.90
17639;DHT22;8938;53.546;9.954;2024-01-16T02:53:03;3.80;99.90
17639;DHT22;8938;53.546;9.954;2024-01-16T02:55:29;3.80;99.90
17639;DHT22;8938;53.546;9.954;2024-01-16T02:57:55;3.70;99.90
17639;DHT22;8938;53.546;9.954;2024-01-16T03:00:20;3.70;99.90
17639;DHT22;8938;53.546;9.954;2024-01-16T03:02:47;3.60;99.90
17639;DHT22;8938;53.546;9.954;2024-01-16T03:05:14;3.50;99.90
17639;DHT22;8938;53.546;9.954;2024-01-16T03:07:40;3.50;99.90
17639;DHT22;8938;53.546;9.954;2024-01-16T03:10:06;3.50;99.90
17639;DHT22;8938;53.546;9.954;2024-01-16T03:12:32;3.50;99.90
17639;DHT22;8938;53.546;9.954;2024-01-16T03:14:57;3.50;99.90
17639;DHT22;8938;53.546;9.954;2024-01-16T03:17:23;3.60;99.90
17639;DHT22;8938;53.546;9.954;2024-01-16T03:19:49;3.60;99.90
17639;DHT22;8938;53.546;9.954;2024-01-16T03:22:14;3.70;99.90
17639;DHT22;8938;53.546;9.954;2024-01-16T03:24:40;3.70;99.90
17639;DHT22;8938;53.546;9.954;2024-01-16T03:27:06;3.70;99.90
17639;DHT22;8938;53.546;9.954;2024-01-16T03:29:31;3.80;99.90
17639;DHT22;8938;53.546;9.954;2024-01-16T03:31:59;3.80;99.90
17639;DHT22;8938;53.546;9.954;2024-01-16T03:34:24;3.70;99.90
17639;DHT22;8938;53.546;9.954;2024-01-16T03:36:50;3.70;99.90
17639;DHT22;8938;53.546;9.954;2024-01-16T03:39:15;3.70;99.90
17639;DHT22;8938;53.546;9.954;2024-01-16T03:41:41;3.70;99.90
17639;DHT22;8938;53.546;9.954;2024-01-16T03:44:07;3.60;99.90
17639;DHT22;8938;53.546;9.954;2024-01-16T03:46:33;3.60;99.90
17639;DHT22;8938;53.546;9.954;2024-01-16T03:48:58;3.60;99.90
17639;DHT22;8938;53.546;9.954;2024-01-16T03:51:24;3.60;99.90
17639;DHT22;8938;53.546;9.954;2024-01-16T03:53:49;3.60;99.90
17639;DHT22;8938;53.546;9.954;2024-01-16T03:56:16;3.60;99.90
17639;DHT22;8938;53.546;9.954;2024-01-16T03:58:41;3.50;99.90
17639;DHT22;8938;53.546;9.954;2024-01-16T04:01:07;3.60;99.90
17639;DHT22;8938;53.546;9.954;2024-01-16T04:03:33;3.60;99.90
17639;DHT22;8938;53.546;9.954;2024-01-16T04:06:00;3.60;99.90
17639;DHT22;8938;53.546;9.954;2024-01-16T04:08:26;3.70;99.90
17639;DHT22;8938;53.546;9.954;2024-01-16T04:10:51;3.60;99.90
17639;DHT22;8938;53.546;9.954;2024-01-16T04:13:17;3.70;99.90
17639;DHT22;8938;53.546;9.954;2024-01-16T04:15:43;3.70;99.90
17639;DHT22;8938;53.546;9.954;2024-01-16T04:18:09;3.70;99.90
17639;DHT22;8938;53.546;9.954;2024-01-16T04:20:34;3.70;99.90
17639;DHT22;8938;53.546;9.954;2024-01-16T04:23:00;3.80;99.90
17639;DHT22;8938;53.546;9.954;2024-01-16T04:25:26;3.90;99.90
17639;DHT22;8938;53.546;9.954;2024-01-16T04:27:51;3.90;99.90
17639;DHT22;8938;53.546;9.954;2024-01-16T04:30:17;3.90;99.90
17639;DHT22;8938;53.546;9.954;2024-01-16T04:32:42;3.80;99.90
17639;DHT22;8938;53.546;9.954;2024-01-16T04:35:08;3.80;99.90
17639;DHT22;8938;53.546;9.954;2024-01-16T04:37:34;3.70;99.90
17639;DHT22;8938;53.546;9.954;2024-01-16T04:40:00;3.70;99.90
17639;DHT22;8938;53.546;9.954;2024-01-16T04:42:25;3.60;99.90
17639;DHT22;8938;53.546;9.954;2024-01-16T04:44:51;3.60;99.90
17639;DHT22;8938;53.546;9.954;2024-01-16T04:47:16;3.60;99.90
17639;DHT22;8938;53.546;9.954;2024-01-16T04:49:42;3.50;99.90
17639;DHT22;8938;53.546;9.954;2024-01-16T04:52:08;3.50;99.90
17639;DHT22;8938;53.546;9.954;2024-01-16T04:54:34;3.50;99.90
17639;DHT22;8938;53.546;9.954;2024-01-16T04:56:59;3.50;99.90
17639;DHT22;8938;53.546;9.954;2024-01-16T04:59:25;3.50;99.90
17639;DHT22;8938;53.546;9.954;2024-01-16T05:01:51;3.40;99.90
17639;DHT22;8938;53.546;9.954;2024-01-16T05:04:17;3.50;99.90
17639;DHT22;8938;53.546;9.954;2024-01-16T05:06:42;3.50;99.90
17639;DHT22;8938;53.546;9.954;2024-01-16T05:09:08;3.50;99.90
17639;DHT22;8938;53.546;9.954;2024-01-16T05:11:35;3.50;99.90
17639;DHT22;8938;53.546;9.954;2024-01-16T05:14:00;3.50;99.90
17639;DHT22;8938;53.546;9.954;2024-01-16T05:16:27;3.50;99.90
17639;DHT22;8938;53.546;9.954;2024-01-16T05:18:53;3.60;99.90
17639;DHT22;8938;53.546;9.954;2024-01-16T05:21:19;3.70;99.90
17639;DHT22;8938;53.546;9.954;2024-01-16T05:23:45;3.60;99.90
17639;DHT22;8938;53.546;9.954;2024-01-16T05:26:11;3.70;99.90
17639;DHT22;8938;53.546;9.954;2024-01-16T05:28:38;3.70;99.90
17639;DHT22;8938;53.546;9.954;2024-01-16T05:31:04;3.60;99.90
17639;DHT22;8938;53.546;9.954;2024-01-16T05:33:29;3.60;99.90
17639;DHT22;8938;53.546;9.954;2024-01-16T05:35:57;3.50;99.90
17639;DHT22;8938;53.546;9.954;2024-01-16T05:38:22;3.50;99.90
17639;DHT22;8938;53.546;9.954;2024-01-16T05:40:48;3.50;99.90
17639;DHT22;8938;53.546;9.954;2024-01-16T05:43:13;3.50;99.90
17639;DHT22;8938;53.546;9.954;2024-01-16T05:45:40;3.60;99.90
17639;DHT22;8938;53.546;9.954;2024-01-16T05:48:05;3.70;99.90
17639;DHT22;8938;53.546;9.954;2024-01-16T05:50:33;3.70;99.90
17639;DHT22;8938;53.546;9.954;2024-01-16T05:52:59;3.80;99.90
17639;DHT22;8938;53.546;9.954;2024-01-16T05:55:24;3.80;99.90
17639;DHT22;8938;53.546;9.954;2024-01-16T05:57:50;3.80;99.90
17639;DHT22;8938;53.546;9.954;2024-01-16T06:00:16;3.70;99.90
17639;DHT22;8938;53.546;9.954;2024-01-16T06:02:43;3.70;99.90
17639;DHT22;8938;53.546;9.954;2024-01-16T06:05:09;3.70;99.90
17639;DHT22;8938;53.546;9.954;2024-01-16T06:07:35;3.70;99.90
17639;DHT22;8938;53.546;9.954;2024-01-16T06:10:00;3.80;99.90
17639;DHT22;8938;53.546;9.954;2024-01-16T06:12:26;3.70;99.90
17639;DHT22;8938;53.546;9.954;2024-01-16T06:14:52;3.70;99.90
17639;DHT22;8938;53.546;9.954;2024-01-16T06:17:17;3.70;99.90
17639;DHT22;8938;53.546;9.954;2024-01-16T06:19:43;3.80;99.90
17639;DHT22;8938;53.546;9.954;2024-01-16T06:22:08;3.80;99.90
17639;DHT22;8938;53.546;9.954;2024-01-16T06:24:34;3.80;99.90
17639;DHT22;8938;53.546;9.954;2024-01-16T06:27:04;3.80;99.90
17639;DHT22;8938;53.546;9.954;2024-01-16T06:29:30;3.90;99.90
17639;DHT22;8938;53.546;9.954;2024-01-16T06:31:55;3.80;99.90
17639;DHT22;8938;53.546;9.954;2024-01-16T06:34:21;3.90;99.90
17639;DHT22;8938;53.546;9.954;2024-01-16T06:36:46;3.90;99.90
17639;DHT22;8938;53.546;9.954;2024-01-16T06:39:12;4.00;99.90
17639;DHT22;8938;53.546;9.954;2024-01-16T06:41:40;4.00;99.90
17639;DHT22;8938;53.546;9.954;2024-01-16T06:44:06;3.90;99.90
17639;DHT22;8938;53.546;9.954;2024-01-16T06:46:32;3.90;99.90
17639;DHT22;8938;53.546;9.954;2024-01-16T06:48:57;3.80;99.90
17639;DHT22;8938;53.546;9.954;2024-01-16T06:51:23;3.80;99.90
17639;DHT22;8938;53.546;9.954;2024-01-16T06:53:51;3.90;99.90
17639;DHT22;8938;53.546;9.954;2024-01-16T06:56:16;4.00;99.90
17639;DHT22;8938;53.546;9.954;2024-01-16T06:58:42;4.10;99.90
17639;DHT22;8938;53.546;9.954;2024-01-16T07:01:09;4.10;99.90
17639;DHT22;8938;53.546;9.954;2024-01-16T07:03:34;4.10;99.90
17639;DHT22;8938;53.546;9.954;2024-01-16T07:06:00;4.10;99.90
17639;DHT22;8938;53.546;9.954;2024-01-16T07:08:26;3.90;99.90
17639;DHT22;8938;53.546;9.954;2024-01-16T07:10:52;3.80;99.90
17639;DHT22;8938;53.546;9.954;2024-01-16T07:13:18;3.60;99.90
17639;DHT22;8938;53.546;9.954;2024-01-16T07:15:44;3.50;99.90
17639;DHT22;8938;53.546;9.954;2024-01-16T07:18:09;3.40;99.90
17639;DHT22;8938;53.546;9.954;2024-01-16T07:20:35;3.40;99.90
17639;DHT22;8938;53.546;9.954;2024-01-16T07:23:01;3.50;99.90
17639;DHT22;8938;53.546;9.954;2024-01-16T07:25:26;3.60;99.90
17639;DHT22;8938;53.546;9.954;2024-01-16T07:27:52;3.70;99.90
17639;DHT22;8938;53.546;9.954;2024-01-16T07:30:17;3.50;99.90
17639;DHT22;8938;53.546;9.954;2024-01-16T07:32:43;3.60;99.90
17639;DHT22;8938;53.546;9.954;2024-01-16T07:35:08;3.60;99.90
17639;DHT22;8938;53.546;9.954;2024-01-16T07:37:34;3.70;99.90
17639;DHT22;8938;53.546;9.954;2024-01-16T07:39:59;3.70;99.90
17639;DHT22;8938;53.546;9.954;2024-01-16T07:42:26;3.70;99.90
17639;DHT22;8938;53.546;9.954;2024-01-16T07:44:52;3.80;99.90
17639;DHT22;8938;53.546;9.954;2024-01-16T07:47:18;3.80;99.90
17639;DHT22;8938;53.546;9.954;2024-01-16T07:49:44;3.80;99.90
17639;DHT22;8938;53.546;9.954;2024-01-16T07:52:10;3.80;99.90
17639;DHT22;8938;53.546;9.954;2024-01-16T07:54:35;3.80;99.90
17639;DHT22;8938;53.546;9.954;2024-01-16T07:57:01;3.70;99.90
17639;DHT22;8938;53.546;9.954;2024-01-16T07:59:26;3.70;99.90
17639;DHT22;8938;53.546;9.954;2024-01-16T08:01:52;3.70;99.90
17639;DHT22;8938;53.546;9.954;2024-01-16T08:04:19;3.70;99.90
17639;DHT22;8938;53.546;9.954;2024-01-16T08:06:45;3.70;99.90
17639;DHT22;8938;53.546;9.954;2024-01-16T08:09:10;3.80;99.90
17639;DHT22;8938;53.546;9.954;2024-01-16T08:11:37;3.90;99.90
17639;DHT22;8938;53.546;9.954;2024-01-16T08:16:30;3.90;99.90
17639;DHT22;8938;53.546;9.954;2024-01-16T08:18:56;4.00;99.90
17639;DHT22;8938;53.546;9.954;2024-01-16T08:21:23;4.00;99.90
17639;DHT22;8938;53.546;9.954;2024-01-16T08:23:48;4.10;99.90
17639;DHT22;8938;53.546;9.954;2024-01-16T08:26:14;4.10;99.90
17639;DHT22;8938;53.546;9.954;2024-01-16T08:28:39;4.10;99.90
17639;DHT22;8938;53.546;9.954;2024-01-16T08:31:05;4.10;99.90
17639;DHT22;8938;53.546;9.954;2024-01-16T08:33:31;4.00;99.90
17639;DHT22;8938;53.546;9.954;2024-01-16T08:35:57;4.00;99.90
17639;DHT22;8938;53.546;9.954;2024-01-16T08:38:22;4.00;99.90
17639;DHT22;8938;53.546;9.954;2024-01-16T08:40:48;4.00;99.90
17639;DHT22;8938;53.546;9.954;2024-01-16T08:43:13;4.10;99.90
17639;DHT22;8938;53.546;9.954;2024-01-16T08:45:39;4.10;99.90
17639;DHT22;8938;53.546;9.954;2024-01-16T08:48:05;4.00;99.90
17639;DHT22;8938;53.546;9.954;2024-01-16T08:50:31;4.00;99.90
17639;DHT22;8938;53.546;9.954;2024-01-16T08:52:56;4.10;99.90
17639;DHT22;8938;53.546;9.954;2024-01-16T08:55:21;4.00;99.90
17639;DHT22;8938;53.546;9.954;2024-01-16T08:57:47;4.00;99.90
17639;DHT22;8938;53.546;9.954;2024-01-16T09:00:13;3.90;99.90
17639;DHT22;8938;53.546;9.954;2024-01-16T09:02:39;4.00;99.90
17639;DHT22;8938;53.546;9.954;2024-01-16T09:05:04;4.10;99.90
17639;DHT22;8938;53.546;9.954;2024-01-16T09:07:30;4.10;99.90
17639;DHT22;8938;53.546;9.954;2024-01-16T09:09:56;4.20;99.90
17639;DHT22;8938;53.546;9.954;2024-01-16T09:12:21;4.20;99.90
17639;DHT22;8938;53.546;9.954;2024-01-16T09:14:47;4.20;99.90
17639;DHT22;8938;53.546;9.954;2024-01-16T09:17:12;4.30;99.90
17639;DHT22;8938;53.546;9.954;2024-01-16T09:19:38;4.30;99.90
17639;DHT22;8938;53.546;9.954;2024-01-16T09:22:04;4.20;99.90
17639;DHT22;8938;53.546;9.954;2024-01-16T09:24:30;4.20;99.90
17639;DHT22;8938;53.546;9.954;2024-01-16T09:26:56;4.20;99.90
17639;DHT22;8938;53.546;9.954;2024-01-16T09:29:23;4.30;99.90
17639;DHT22;8938;53.546;9.954;2024-01-16T09:31:50;4.30;99.90
17639;DHT22;8938;53.546;9.954;2024-01-16T09:34:15;4.30;99.90
17639;DHT22;8938;53.546;9.954;2024-01-16T09:36:42;4.30;99.90
17639;DHT22;8938;53.546;9.954;2024-01-16T09:39:08;4.30;99.90
17639;DHT22;8938;53.546;9.954;2024-01-16T09:41:34;4.20;99.90
17639;DHT22;8938;53.546;9.954;2024-01-16T09:44:00;4.30;99.90
17639;DHT22;8938;53.546;9.954;2024-01-16T09:46:26;4.30;99.90
17639;DHT22;8938;53.546;9.954;2024-01-16T09:48:54;4.30;99.90
17639;DHT22;8938;53.546;9.954;2024-01-16T09:51:20;4.30;99.90
17639;DHT22;8938;53.546;9.954;2024-01-16T09:53:46;4.30;99.90
17639;DHT22;8938;53.546;9.954;2024-01-16T09:56:15;4.30;99.90
17639;DHT22;8938;53.546;9.954;2024-01-16T09:58:41;4.30;99.90
17639;DHT22;8938;53.546;9.954;2024-01-16T10:01:08;4.30;99.90
17639;DHT22;8938;53.546;9.954;2024-01-16T10:03:34;4.40;99.90
17639;DHT22;8938;53.546;9.954;2024-01-16T10:06:04;4.30;99.90
17639;DHT22;8938;53.546;9.954;2024-01-16T10:08:31;4.20;99.90
17639;DHT22;8938;53.546;9.954;2024-01-16T10:10:59;4.20;99.90
17639;DHT22;8938;53.546;9.954;2024-01-16T10:13:26;4.30;99.90
17639;DHT22;8938;53.546;9.954;2024-01-16T10:15:52;4.30;99.90
17639;DHT22;8938;53.546;9.954;2024-01-16T10:18:28;4.40;99.90
17639;DHT22;8938;53.546;9.954;2024-01-16T10:20:55;4.40;99.90
17639;DHT22;8938;53.546;9.954;2024-01-16T10:23:31;4.50;99.90
17639;DHT22;8938;53.546;9.954;2024-01-16T10:26:06;4.50;99.90
17639;DHT22;8938;53.546;9.954;2024-01-16T10:28:39;4.50;99.90
17639;DHT22;8938;53.546;9.954;2024-01-16T10:31:09;4.60;99.90
17639;DHT22;8938;53.546;9.954;2024-01-16T10:33:36;4.60;99.90
17639;DHT22;8938;53.546;9.954;2024-01-16T10:36:14;4.60;99.90
17639;DHT22;8938;53.546;9.954;2024-01-16T10:38:43;4.60;99.90
17639;DHT22;8938;53.546;9.954;2024-01-16T10:41:18;4.50;99.90
17639;DHT22;8938;53.546;9.954;2024-01-16T10:43:44;4.40;99.90
17639;DHT22;8938;53.546;9.954;2024-01-16T10:46:15;4.40;99.90
17639;DHT22;8938;53.546;9.954;2024-01-16T10:48:43;4.50;99.90
17639;DHT22;8938;53.546;9.954;2024-01-16T10:51:15;4.50;99.90
17639;DHT22;8938;53.546;9.954;2024-01-16T10:53:42;4.50;99.90
17639;DHT22;8938;53.546;9.954;2024-01-16T10:56:10;4.40;99.90
17639;DHT22;8938;53.546;9.954;2024-01-16T10:58:40;4.40;99.90
17639;DHT22;8938;53.546;9.954;2024-01-16T11:01:10;4.50;99.90
17639;DHT22;8938;53.546;9.954;2024-01-16T11:03:49;4.60;99.90
17639;DHT22;8938;53.546;9.954;2024-01-16T11:06:16;4.70;99.90
17639;DHT22;8938;53.546;9.954;2024-01-16T11:08:42;4.80;99.90
17639;DHT22;8938;53.546;9.954;2024-01-16T11:11:08;4.80;99.90
17639;DHT22;8938;53.546;9.954;2024-01-16T11:13:35;4.80;99.90
17639;DHT22;8938;53.546;9.954;2024-01-16T11:16:04;4.90;99.90
17639;DHT22;8938;53.546;9.954;2024-01-16T11:18:31;5.00;99.90
17639;DHT22;8938;53.546;9.954;2024-01-16T11:21:05;4.90;99.90
17639;DHT22;8938;53.546;9.954;2024-01-16T11:23:31;5.10;99.90
17639;DHT22;8938;53.546;9.954;2024-01-16T11:25:57;5.00;99.90
17639;DHT22;8938;53.546;9.954;2024-01-16T11:28:27;5.00;99.90
17639;DHT22;8938;53.546;9.954;2024-01-16T11:30:55;5.10;99.90
17639;DHT22;8938;53.546;9.954;2024-01-16T11:35:56;5.10;99.90
17639;DHT22;8938;53.546;9.954;2024-01-16T11:38:23;5.10;99.90
17639;DHT22;8938;53.546;9.954;2024-01-16T11:40:54;5.10;99.90
17639;DHT22;8938;53.546;9.954;2024-01-16T11:45:59;5.20;99.90
17639;DHT22;8938;53.546;9.954;2024-01-16T11:48:25;5.20;99.90
17639;DHT22;8938;53.546;9.954;2024-01-16T11:50:52;5.20;99.90
17639;DHT22;8938;53.546;9.954;2024-01-16T11:59:14;5.10;99.90
17639;DHT22;8938;53.546;9.954;2024-01-16T12:01:45;5.20;99.90
17639;DHT22;8938;53.546;9.954;2024-01-16T12:04:10;5.20;99.90
17639;DHT22;8938;53.546;9.954;2024-01-16T12:06:37;5.30;99.90
17639;DHT22;8938;53.546;9.954;2024-01-16T12:09:16;5.40;99.90
17639;DHT22;8938;53.546;9.954;2024-01-16T12:11:43;5.50;99.90
17639;DHT22;8938;53.546;9.954;2024-01-16T12:14:11;5.60;99.90
17639;DHT22;8938;53.546;9.954;2024-01-16T12:16:37;5.70;99.90
17639;DHT22;8938;53.546;9.954;2024-01-16T12:19:10;5.80;99.90
17639;DHT22;8938;53.546;9.954;2024-01-16T12:21:39;5.80;99.90
17639;DHT22;8938;53.546;9.954;2024-01-16T12:24:05;5.80;99.90
17639;DHT22;8938;53.546;9.954;2024-01-16T12:26:30;5.70;99.90
17639;DHT22;8938;53.546;9.954;2024-01-16T12:28:57;5.70;99.90
17639;DHT22;8938;53.546;9.954;2024-01-16T12:31:23;5.80;99.90
17639;DHT22;8938;53.546;9.954;2024-01-16T12:33:50;5.70;99.90
17639;DHT22;8938;53.546;9.954;2024-01-16T12:36:16;5.60;99.90
17639;DHT22;8938;53.546;9.954;2024-01-16T12:38:41;5.60;99.90
17639;DHT22;8938;53.546;9.954;2024-01-16T12:41:09;5.70;99.90
17639;DHT22;8938;53.546;9.954;2024-01-16T12:43:35;5.70;99.90
17639;DHT22;8938;53.546;9.954;2024-01-16T12:46:02;5.70;99.90
17639;DHT22;8938;53.546;9.954;2024-01-16T12:48:28;5.70;99.90
17639;DHT22;8938;53.546;9.954;2024-01-16T12:51:04;5.70;99.90
17639;DHT22;8938;53.546;9.954;2024-01-16T12:53:31;5.70;99.90
17639;DHT22;8938;53.546;9.954;2024-01-16T12:56:02;5.60;99.90
17639;DHT22;8938;53.546;9.954;2024-01-16T12:58:36;5.60;99.90
17639;DHT22;8938;53.546;9.954;2024-01-16T13:03:47;5.70;99.90
17639;DHT22;8938;53.546;9.954;2024-01-16T13:06:17;5.70;99.90
17639;DHT22;8938;53.546;9.954;2024-01-16T13:08:43;5.70;99.90
17639;DHT22;8938;53.546;9.954;2024-01-16T13:11:09;5.70;99.90
17639;DHT22;8938;53.546;9.954;2024-01-16T13:13:35;5.60;99.90
17639;DHT22;8938;53.546;9.954;2024-01-16T13:16:02;5.60;99.90
17639;DHT22;8938;53.546;9.954;2024-01-16T13:18:29;5.60;99.90
17639;DHT22;8938;53.546;9.954;2024-01-16T13:20:56;5.60;99.90
17639;DHT22;8938;53.546;9.954;2024-01-16T13:23:23;5.60;99.90
17639;DHT22;8938;53.546;9.954;2024-01-16T13:25:51;5.60;99.90
17639;DHT22;8938;53.546;9.954;2024-01-16T13:28:17;5.50;99.90
17639;DHT22;8938;53.546;9.954;2024-01-16T13:30:44;5.50;99.90
17639;DHT22;8938;53.546;9.954;2024-01-16T13:33:10;5.60;99.90
17639;DHT22;8938;53.546;9.954;2024-01-16T13:35:39;5.50;99.90
17639;DHT22;8938;53.546;9.954;2024-01-16T13:38:05;5.50;99.90
17639;DHT22;8938;53.546;9.954;2024-01-16T13:40:32;5.50;99.90
17639;DHT22;8938;53.546;9.954;2024-01-16T13:42:58;5.50;99.90
17639;DHT22;8938;53.546;9.954;2024-01-16T13:45:24;5.50;99.90
17639;DHT22;8938;53.546;9.954;2024-01-16T13:47:49;5.40;99.90
17639;DHT22;8938;53.546;9.954;2024-01-16T13:50:15;5.40;99.90
17639;DHT22;8938;53.546;9.954;2024-01-16T13:52:43;5.40;99.90
17639;DHT22;8938;53.546;9.954;2024-01-16T13:55:09;5.40;99.90
17639;DHT22;8938;53.546;9.954;2024-01-16T13:57:35;5.30;99.90
17639;DHT22;8938;53.546;9.954;2024-01-16T14:00:03;5.30;99.90
17639;DHT22;8938;53.546;9.954;2024-01-16T14:02:29;5.30;99.90
17639;DHT22;8938;53.546;9.954;2024-01-16T14:04:55;5.30;99.90
17639;DHT22;8938;53.546;9.954;2024-01-16T14:07:20;5.30;99.90
17639;DHT22;8938;53.546;9.954;2024-01-16T14:09:46;5.40;99.90
17639;DHT22;8938;53.546;9.954;2024-01-16T14:12:13;5.40;99.90
17639;DHT22;8938;53.546;9.954;2024-01-16T14:14:40;5.40;99.90
17639;DHT22;8938;53.546;9.954;2024-01-16T14:17:06;5.30;99.90
17639;DHT22;8938;53.546;9.954;2024-01-16T14:19:34;5.50;99.90
17639;DHT22;8938;53.546;9.954;2024-01-16T14:22:00;5.50;99.90
17639;DHT22;8938;53.546;9.954;2024-01-16T14:24:25;5.40;99.90
17639;DHT22;8938;53.546;9.954;2024-01-16T14:26:51;5.30;99.90
17639;DHT22;8938;53.546;9.954;2024-01-16T14:29:16;5.20;99.90
17639;DHT22;8938;53.546;9.954;2024-01-16T14:31:42;5.30;99.90
17639;DHT22;8938;53.546;9.954;2024-01-16T14:34:10;5.30;99.90
17639;DHT22;8938;53.546;9.954;2024-01-16T14:36:39;5.30;99.90
17639;DHT22;8938;53.546;9.954;2024-01-16T14:39:05;5.30;99.90
17639;DHT22;8938;53.546;9.954;2024-01-16T14:41:30;5.30;99.90
17639;DHT22;8938;53.546;9.954;2024-01-16T14:43:57;5.30;99.90
17639;DHT22;8938;53.546;9.954;2024-01-16T14:46:23;5.30;99.90
17639;DHT22;8938;53.546;9.954;2024-01-16T14:48:48;5.20;99.90
17639;DHT22;8938;53.546;9.954;2024-01-16T14:51:14;5.30;99.90
17639;DHT22;8938;53.546;9.954;2024-01-16T14:53:39;5.30;99.90
17639;DHT22;8938;53.546;9.954;2024-01-16T14:56:05;5.30;99.90
17639;DHT22;8938;53.546;9.954;2024-01-16T14:58:31;5.30;99.90
17639;DHT22;8938;53.546;9.954;2024-01-16T15:00:57;5.30;99.90
17639;DHT22;8938;53.546;9.954;2024-01-16T15:03:23;5.20;99.90
17639;DHT22;8938;53.546;9.954;2024-01-16T15:05:50;5.30;99.90
17639;DHT22;8938;53.546;9.954;2024-01-16T15:08:17;5.20;99.90
17639;DHT22;8938;53.546;9.954;2024-01-16T15:10:43;5.20;99.90
17639;DHT22;8938;53.546;9.954;2024-01-16T15:13:09;5.20;99.90
17639;DHT22;8938;53.546;9.954;2024-01-16T15:15:34;5.20;99.90
17639;DHT22;8938;53.546;9.954;2024-01-16T15:18:01;5.20;99.90
17639;DHT22;8938;53.546;9.954;2024-01-16T15:20:27;5.30;99.90
17639;DHT22;8938;53.546;9.954;2024-01-16T15:22:53;5.30;99.90
17639;DHT22;8938;53.546;9.954;2024-01-16T15:25:19;5.40;99.90
17639;DHT22;8938;53.546;9.954;2024-01-16T15:27:48;5.50;99.90
17639;DHT22;8938;53.546;9.954;2024-01-16T15:30:19;5.40;99.90
17639;DHT22;8938;53.546;9.954;2024-01-16T15:32:45;5.40;99.90
17639;DHT22;8938;53.546;9.954;2024-01-16T15:35:10;5.40;99.90
17639;DHT22;8938;53.546;9.954;2024-01-16T15:37:36;5.40;99.90
17639;DHT22;8938;53.546;9.954;2024-01-16T15:40:02;5.40;99.90
17639;DHT22;8938;53.546;9.954;2024-01-16T15:42:32;5.40;99.90
17639;DHT22;8938;53.546;9.954;2024-01-16T15:44:57;5.40;99.90
17639;DHT22;8938;53.546;9.954;2024-01-16T15:47:23;5.50;99.90
17639;DHT22;8938;53.546;9.954;2024-01-16T15:49:48;5.50;99.90
17639;DHT22;8938;53.546;9.954;2024-01-16T15:52:14;5.40;99.90
17639;DHT22;8938;53.546;9.954;2024-01-16T15:54:40;5.30;99.90
17639;DHT22;8938;53.546;9.954;2024-01-16T15:57:06;5.30;99.90
17639;DHT22;8938;53.546;9.954;2024-01-16T15:59:32;5.20;99.90
17639;DHT22;8938;53.546;9.954;2024-01-16T16:01:57;5.30;99.90
17639;DHT22;8938;53.546;9.954;2024-01-16T16:04:23;5.30;99.90
17639;DHT22;8938;53.546;9.954;2024-01-16T16:06:49;5.40;99.90
17639;DHT22;8938;53.546;9.954;2024-01-16T16:09:15;5.40;99.90
17639;DHT22;8938;53.546;9.954;2024-01-16T16:11:42;5.40;99.90
17639;DHT22;8938;53.546;9.954;2024-01-16T16:14:12;5.30;99.90
17639;DHT22;8938;53.546;9.954;2024-01-16T16:16:37;5.30;99.90
17639;DHT22;8938;53.546;9.954;2024-01-16T16:19:03;5.30;99.90
17639;DHT22;8938;53.546;9.954;2024-01-16T16:21:30;5.20;99.90